createdAt,value
2019-06-26T00:00:09.881Z,1020.3
2019-06-26T00:01:22.081Z,1020.3
2019-06-26T00:02:34.282Z,1020.3
2019-06-26T00:03:46.482Z,1020.3
2019-06-26T00:04:58.679Z,1020.3
2019-06-26T00:06:10.879Z,1020.2
2019-06-26T00:07:23.000Z,1020.2
2019-06-26T00:08:35.269Z,1020.3
2019-06-26T00:09:47.469Z,1020.3
2019-06-26T00:10:59.665Z,1020.3
2019-06-26T00:12:11.867Z,1020.3
2019-06-26T00:13:24.069Z,1020.3
2019-06-26T00:14:36.271Z,1020.2
2019-06-26T00:15:48.470Z,1020.3
2019-06-26T00:17:00.669Z,1020.3
2019-06-26T00:18:12.869Z,1020.2
2019-06-26T00:19:25.059Z,1020.2
2019-06-26T00:20:37.257Z,1020.3
2019-06-26T00:21:49.465Z,1020.2
2019-06-26T00:23:01.659Z,1020.2
2019-06-26T00:24:13.861Z,1020.3
2019-06-26T00:25:26.061Z,1020.3
2019-06-26T00:26:38.026Z,1020.2
2019-06-26T00:27:50.465Z,1020.2
2019-06-26T00:29:02.661Z,1020.2
2019-06-26T00:30:14.008Z,1020.2
2019-06-26T00:31:27.051Z,1020.3
2019-06-26T00:32:39.252Z,1020.2
2019-06-26T00:33:51.453Z,1020.2
2019-06-26T00:35:03.652Z,1020.3
2019-06-26T00:36:15.849Z,1020.2
2019-06-26T00:37:28.064Z,1020.2
2019-06-26T00:38:40.252Z,1020.2
2019-06-26T00:39:52.439Z,1020.1
2019-06-26T00:41:04.641Z,1020.2
2019-06-26T00:42:16.840Z,1020.2
2019-06-26T00:43:29.041Z,1020.1
2019-06-26T00:44:41.242Z,1020.1
2019-06-26T00:45:53.444Z,1020.1
2019-06-26T00:47:05.640Z,1020.1
2019-06-26T00:48:17.849Z,1020.1
2019-06-26T00:49:30.045Z,1020.1
2019-06-26T00:50:42.240Z,1020.1
2019-06-26T00:51:54.428Z,1020.1
2019-06-26T00:53:06.634Z,1020.1
2019-06-26T00:54:18.831Z,1020
2019-06-26T00:55:31.003Z,1020
2019-06-26T00:56:43.234Z,1020
2019-06-26T00:57:55.428Z,1020
2019-06-26T00:59:07.632Z,1020.1
2019-06-26T01:00:19.835Z,1020
2019-06-26T01:01:32.028Z,1020
2019-06-26T01:02:44.232Z,1020
2019-06-26T01:03:56.422Z,1020
2019-06-26T01:05:08.620Z,1020
2019-06-26T01:06:20.822Z,1020
2019-06-26T01:07:33.027Z,1020
2019-06-26T01:08:45.218Z,1020
2019-06-26T01:09:57.422Z,1020
2019-06-26T01:11:09.620Z,1020
2019-06-26T01:12:21.824Z,1020
2019-06-26T01:13:34.022Z,1020
2019-06-26T01:14:46.266Z,1020
2019-06-26T01:15:58.416Z,1019.9
2019-06-26T01:17:10.614Z,1020
2019-06-26T01:18:22.814Z,1020
2019-06-26T01:19:35.012Z,1019.9
2019-06-26T01:20:47.211Z,1020
2019-06-26T01:21:59.414Z,1020
2019-06-26T01:23:11.611Z,1020
2019-06-26T01:24:23.814Z,1020
2019-06-26T01:25:36.003Z,1019.9
2019-06-26T01:26:48.204Z,1019.9
2019-06-26T01:28:00.401Z,1019.9
2019-06-26T01:29:12.608Z,1019.9
2019-06-26T01:30:24.080Z,1019.9
2019-06-26T01:31:37.004Z,1019.9
2019-06-26T01:32:49.205Z,1019.9
2019-06-26T01:34:01.400Z,1020
2019-06-26T01:35:13.606Z,1019.9
2019-06-26T01:36:25.807Z,1020
2019-06-26T01:37:37.992Z,1019.9
2019-06-26T01:38:50.195Z,1019.9
2019-06-26T01:40:02.392Z,1019.9
2019-06-26T01:41:14.594Z,1019.9
2019-06-26T01:42:26.793Z,1019.9
2019-06-26T01:43:38.992Z,1020
2019-06-26T01:44:51.195Z,1019.9
2019-06-26T01:46:03.402Z,1020
2019-06-26T01:47:15.593Z,1019.9
2019-06-26T01:48:27.078Z,1019.9
2019-06-26T01:49:39.981Z,1020
2019-06-26T01:50:52.184Z,1019.9
2019-06-26T01:52:04.383Z,1019.9
2019-06-26T01:53:16.585Z,1019.9
2019-06-26T01:54:28.785Z,1019.9
2019-06-26T01:55:40.983Z,1020
2019-06-26T01:56:53.181Z,1019.9
2019-06-26T01:58:05.387Z,1019.9
2019-06-26T01:59:17.574Z,1020
2019-06-26T02:00:29.775Z,1019.9
2019-06-26T02:01:41.978Z,1019.8
2019-06-26T02:02:54.171Z,1019.9
2019-06-26T02:04:06.379Z,1019.9
2019-06-26T02:05:18.577Z,1019.9
2019-06-26T02:06:30.077Z,1019.9
2019-06-26T02:07:42.973Z,1019.9
2019-06-26T02:08:55.173Z,1019.9
2019-06-26T02:10:07.369Z,1019.9
2019-06-26T02:11:19.571Z,1019.9
2019-06-26T02:12:31.769Z,1020
2019-06-26T02:13:43.966Z,1019.9
2019-06-26T02:14:56.169Z,1020
2019-06-26T02:16:08.363Z,1019.9
2019-06-26T02:17:20.565Z,1020
2019-06-26T02:18:32.765Z,1019.9
2019-06-26T02:19:44.995Z,1020
2019-06-26T02:20:57.167Z,1019.9
2019-06-26T02:22:09.361Z,1020
2019-06-26T02:23:21.055Z,1019.9
2019-06-26T02:24:33.756Z,1019.9
2019-06-26T02:25:45.955Z,1019.9
2019-06-26T02:26:58.016Z,1019.9
2019-06-26T02:28:10.355Z,1019.9
2019-06-26T02:29:22.599Z,1019.9
2019-06-26T02:30:34.761Z,1019.9
2019-06-26T02:31:46.953Z,1019.9
2019-06-26T02:32:59.015Z,1019.9
2019-06-26T02:34:11.347Z,1019.9
2019-06-26T02:35:23.000Z,1019.9
2019-06-26T02:36:35.747Z,1019.9
2019-06-26T02:37:47.943Z,1019.9
2019-06-26T02:39:00.148Z,1019.9
2019-06-26T02:40:12.349Z,1019.9
2019-06-26T02:41:24.545Z,1019.8
2019-06-26T02:42:36.745Z,1019.9
2019-06-26T02:43:48.948Z,1019.8
2019-06-26T02:45:01.137Z,1019.8
2019-06-26T02:46:13.338Z,1019.8
2019-06-26T02:47:25.538Z,1019.8
2019-06-26T02:48:37.736Z,1019.8
2019-06-26T02:49:49.936Z,1019.8
2019-06-26T02:51:02.137Z,1019.9
2019-06-26T02:52:14.338Z,1019.8
2019-06-26T02:53:26.539Z,1019.8
2019-06-26T02:54:38.734Z,1019.8
2019-06-26T02:55:50.092Z,1019.8
2019-06-26T02:57:03.127Z,1019.8
2019-06-26T02:58:15.003Z,1019.8
2019-06-26T02:59:27.527Z,1019.8
2019-06-26T03:00:39.725Z,1019.8
2019-06-26T03:01:51.926Z,1019.8
2019-06-26T03:03:04.127Z,1019.8
2019-06-26T03:04:16.324Z,1019.8
2019-06-26T03:05:28.558Z,1019.8
2019-06-26T03:06:40.721Z,1019.7
2019-06-26T03:07:52.916Z,1019.8
2019-06-26T03:09:05.121Z,1019.8
2019-06-26T03:10:17.316Z,1019.8
2019-06-26T03:11:29.516Z,1019.8
2019-06-26T03:12:41.716Z,1019.8
2019-06-26T03:13:53.920Z,1019.8
2019-06-26T03:15:06.119Z,1019.8
2019-06-26T03:16:18.304Z,1019.8
2019-06-26T03:17:30.508Z,1019.8
2019-06-26T03:18:42.708Z,1019.8
2019-06-26T03:19:54.908Z,1019.8
2019-06-26T03:21:07.011Z,1019.8
2019-06-26T03:22:19.031Z,1019.8
2019-06-26T03:23:31.508Z,1019.8
2019-06-26T03:24:43.708Z,1019.8
2019-06-26T03:25:55.909Z,1019.8
2019-06-26T03:27:08.108Z,1019.9
2019-06-26T03:28:20.298Z,1019.9
2019-06-26T03:29:32.498Z,1019.9
2019-06-26T03:30:44.698Z,1019.8
2019-06-26T03:31:56.902Z,1019.9
2019-06-26T03:33:09.100Z,1019.9
2019-06-26T03:34:21.300Z,1019.8
2019-06-26T03:35:33.500Z,1019.9
2019-06-26T03:36:45.700Z,1019.9
2019-06-26T03:37:57.901Z,1019.9
2019-06-26T03:39:10.096Z,1019.8
2019-06-26T03:40:22.298Z,1019.9
2019-06-26T03:41:34.490Z,1019.8
2019-06-26T03:42:46.695Z,1019.9
2019-06-26T03:43:58.890Z,1019.9
2019-06-26T03:45:11.088Z,1019.8
2019-06-26T03:46:23.295Z,1019.8
2019-06-26T03:47:35.490Z,1019.8
2019-06-26T03:48:47.688Z,1019.8
2019-06-26T03:49:59.888Z,1019.8
2019-06-26T03:51:12.090Z,1019.8
2019-06-26T03:52:24.027Z,1019.8
2019-06-26T03:53:36.482Z,1019.7
2019-06-26T03:54:48.678Z,1019.7
2019-06-26T03:56:00.880Z,1019.8
2019-06-26T03:57:13.080Z,1019.7
2019-06-26T03:58:25.027Z,1019.8
2019-06-26T03:59:37.479Z,1019.7
2019-06-26T04:00:49.683Z,1019.7
2019-06-26T04:02:01.908Z,1019.7
2019-06-26T04:03:14.080Z,1019.8
2019-06-26T04:04:26.279Z,1019.8
2019-06-26T04:05:38.479Z,1019.7
2019-06-26T04:06:50.688Z,1019.8
2019-06-26T04:08:02.884Z,1019.8
2019-06-26T04:09:15.080Z,1019.7
2019-06-26T04:10:27.028Z,1019.8
2019-06-26T04:11:39.479Z,1019.8
2019-06-26T04:12:51.068Z,1019.7
2019-06-26T04:14:03.879Z,1019.8
2019-06-26T04:15:16.079Z,1019.7
2019-06-26T04:16:28.282Z,1019.8
2019-06-26T04:17:40.477Z,1019.7
2019-06-26T04:18:52.679Z,1019.7
2019-06-26T04:20:04.884Z,1019.7
2019-06-26T04:21:17.079Z,1019.7
2019-06-26T04:22:29.027Z,1019.8
2019-06-26T04:23:41.048Z,1019.8
2019-06-26T04:24:53.682Z,1019.8
2019-06-26T04:26:05.882Z,1019.8
2019-06-26T04:27:18.089Z,1019.7
2019-06-26T04:28:30.293Z,1019.7
2019-06-26T04:29:42.493Z,1019.7
2019-06-26T04:30:54.691Z,1019.7
2019-06-26T04:32:06.894Z,1019.8
2019-06-26T04:33:19.092Z,1019.8
2019-06-26T04:34:31.293Z,1019.8
2019-06-26T04:35:43.493Z,1019.8
2019-06-26T04:36:55.687Z,1019.7
2019-06-26T04:38:07.891Z,1019.7
2019-06-26T04:39:20.098Z,1019.7
2019-06-26T04:40:32.301Z,1019.7
2019-06-26T04:41:44.050Z,1019.8
2019-06-26T04:42:56.703Z,1019.7
2019-06-26T04:44:08.905Z,1019.7
2019-06-26T04:45:21.103Z,1019.7
2019-06-26T04:46:33.303Z,1019.7
2019-06-26T04:47:45.501Z,1019.7
2019-06-26T04:48:57.705Z,1019.7
2019-06-26T04:50:09.924Z,1019.7
2019-06-26T04:51:22.103Z,1019.7
2019-06-26T04:52:34.303Z,1019.6
2019-06-26T04:53:46.501Z,1019.6
2019-06-26T04:54:58.702Z,1019.6
2019-06-26T04:56:10.909Z,1019.6
2019-06-26T04:57:23.114Z,1019.6
2019-06-26T04:58:35.315Z,1019.6
2019-06-26T04:59:47.508Z,1019.6
2019-06-26T05:00:59.715Z,1019.6
2019-06-26T05:02:11.913Z,1019.5
2019-06-26T05:03:24.011Z,1019.6
2019-06-26T05:04:36.312Z,1019.6
2019-06-26T05:05:48.509Z,1019.6
2019-06-26T05:07:00.715Z,1019.6
2019-06-26T05:08:12.917Z,1019.6
2019-06-26T05:09:25.113Z,1019.6
2019-06-26T05:10:37.312Z,1019.6
2019-06-26T05:11:49.513Z,1019.6
2019-06-26T05:13:01.713Z,1019.7
2019-06-26T05:14:13.913Z,1019.7
2019-06-26T05:15:26.116Z,1019.7
2019-06-26T05:16:38.323Z,1019.7
2019-06-26T05:17:50.523Z,1019.7
2019-06-26T05:19:02.719Z,1019.7
2019-06-26T05:20:14.926Z,1019.8
2019-06-26T05:21:27.122Z,1019.7
2019-06-26T05:22:39.322Z,1019.7
2019-06-26T05:23:51.005Z,1019.7
2019-06-26T05:25:03.071Z,1019.7
2019-06-26T05:26:15.923Z,1019.7
2019-06-26T05:27:28.123Z,1019.7
2019-06-26T05:28:40.317Z,1019.8
2019-06-26T05:29:52.522Z,1019.7
2019-06-26T05:31:04.720Z,1019.8
2019-06-26T05:32:16.924Z,1019.8
2019-06-26T05:33:29.125Z,1019.7
2019-06-26T05:34:41.321Z,1019.8
2019-06-26T05:35:53.530Z,1019.8
2019-06-26T05:37:05.745Z,1019.9
2019-06-26T05:38:17.952Z,1019.9
2019-06-26T05:39:30.161Z,1019.9
2019-06-26T05:40:42.332Z,1019.9
2019-06-26T05:41:54.530Z,1019.9
2019-06-26T05:43:06.733Z,1019.9
2019-06-26T05:44:18.932Z,1019.9
2019-06-26T05:45:31.133Z,1020
2019-06-26T05:46:43.336Z,1019.9
2019-06-26T05:47:55.005Z,1020
2019-06-26T05:49:07.730Z,1019.9
2019-06-26T05:50:19.093Z,1019.9
2019-06-26T05:51:32.132Z,1019.9
2019-06-26T05:52:44.335Z,1019.9
2019-06-26T05:53:56.541Z,1020
2019-06-26T05:55:08.074Z,1020
2019-06-26T05:56:20.942Z,1020
2019-06-26T05:57:33.140Z,1020
2019-06-26T05:58:45.341Z,1020.1
2019-06-26T05:59:57.540Z,1020
2019-06-26T06:01:09.743Z,1020.1
2019-06-26T06:02:21.094Z,1020.1
2019-06-26T06:03:34.140Z,1020.1
2019-06-26T06:04:46.343Z,1020.1
2019-06-26T06:05:58.544Z,1020.2
2019-06-26T06:07:10.742Z,1020.1
2019-06-26T06:08:22.944Z,1020.2
2019-06-26T06:09:35.140Z,1020.2
2019-06-26T06:10:47.035Z,1020.2
2019-06-26T06:11:59.554Z,1020.2
2019-06-26T06:13:11.075Z,1020.1
2019-06-26T06:14:23.954Z,1020.1
2019-06-26T06:15:36.015Z,1020.1
2019-06-26T06:16:48.035Z,1020.1
2019-06-26T06:18:00.553Z,1020.1
2019-06-26T06:19:12.756Z,1020.1
2019-06-26T06:20:24.953Z,1020.2
2019-06-26T06:21:37.155Z,1020.2
2019-06-26T06:22:49.349Z,1020.2
2019-06-26T06:25:13.755Z,1020.2
2019-06-26T06:26:25.953Z,1020.2
2019-06-26T06:27:38.157Z,1020.2
2019-06-26T06:28:50.039Z,1020.2
2019-06-26T06:30:02.056Z,1020.2
2019-06-26T06:31:14.766Z,1020.2
2019-06-26T06:32:26.962Z,1020.2
2019-06-26T06:33:39.016Z,1020.2
2019-06-26T06:34:51.373Z,1020.3
2019-06-26T06:36:03.568Z,1020.3
2019-06-26T06:37:15.767Z,1020.3
2019-06-26T06:38:28.010Z,1020.4
2019-06-26T06:39:40.165Z,1020.4
2019-06-26T06:40:52.365Z,1020.4
2019-06-26T06:42:04.565Z,1020.4
2019-06-26T06:43:16.776Z,1020.3
2019-06-26T06:44:28.097Z,1020.3
2019-06-26T06:45:41.174Z,1020.3
2019-06-26T06:46:53.377Z,1020.3
2019-06-26T06:48:05.694Z,1020.4
2019-06-26T06:49:17.775Z,1020.4
2019-06-26T06:50:29.978Z,1020.4
2019-06-26T06:51:42.174Z,1020.3
2019-06-26T06:52:54.374Z,1020.3
2019-06-26T06:54:06.587Z,1020.3
2019-06-26T06:55:18.776Z,1020.3
2019-06-26T06:56:30.988Z,1020.3
2019-06-26T06:57:43.183Z,1020.3
2019-06-26T06:58:55.391Z,1020.3
2019-06-26T07:00:07.586Z,1020.3
2019-06-26T07:01:19.793Z,1020.3
2019-06-26T07:02:31.098Z,1020.3
2019-06-26T07:03:44.185Z,1020.3
2019-06-26T07:04:56.038Z,1020.3
2019-06-26T07:06:08.594Z,1020.4
2019-06-26T07:07:20.787Z,1020.4
2019-06-26T07:08:32.988Z,1020.4
2019-06-26T07:09:45.197Z,1020.4
2019-06-26T07:10:57.395Z,1020.5
2019-06-26T07:13:21.906Z,1020.5
2019-06-26T07:14:34.000Z,1020.5
2019-06-26T07:15:46.196Z,1020.6
2019-06-26T07:16:58.397Z,1020.6
2019-06-26T07:18:10.596Z,1020.5
2019-06-26T07:19:22.797Z,1020.5
2019-06-26T07:20:35.004Z,1020.5
2019-06-26T07:21:47.213Z,1020.5
2019-06-26T07:22:59.406Z,1020.5
2019-06-26T07:24:12.006Z,1020.5
2019-06-26T07:25:23.806Z,1020.5
2019-06-26T07:26:36.008Z,1020.5
2019-06-26T07:27:48.208Z,1020.5
2019-06-26T07:29:00.408Z,1020.6
2019-06-26T07:30:12.614Z,1020.6
2019-06-26T07:31:24.816Z,1020.6
2019-06-26T07:32:37.021Z,1020.6
2019-06-26T07:33:49.218Z,1020.6
2019-06-26T07:35:01.417Z,1020.6
2019-06-26T07:36:13.620Z,1020.5
2019-06-26T07:37:25.082Z,1020.6
2019-06-26T07:38:38.019Z,1020.6
2019-06-26T07:39:50.218Z,1020.6
2019-06-26T07:41:02.421Z,1020.6
2019-06-26T07:42:14.626Z,1020.6
2019-06-26T07:43:26.819Z,1020.6
2019-06-26T07:44:39.019Z,1020.6
2019-06-26T07:45:51.220Z,1020.7
2019-06-26T07:47:03.418Z,1020.7
2019-06-26T07:48:15.623Z,1020.7
2019-06-26T07:49:27.826Z,1020.8
2019-06-26T07:50:40.028Z,1020.7
2019-06-26T07:51:52.022Z,1020.7
2019-06-26T07:53:04.423Z,1020.7
2019-06-26T07:54:16.628Z,1020.7
2019-06-26T07:55:28.828Z,1020.7
2019-06-26T07:56:41.031Z,1020.7
2019-06-26T07:57:53.230Z,1020.7
2019-06-26T07:59:05.428Z,1020.8
2019-06-26T08:00:17.630Z,1020.7
2019-06-26T08:01:29.833Z,1020.7
2019-06-26T08:02:42.003Z,1020.8
2019-06-26T08:03:54.239Z,1020.8
2019-06-26T08:05:06.441Z,1020.8
2019-06-26T08:06:18.642Z,1020.8
2019-06-26T08:07:30.840Z,1020.8
2019-06-26T08:08:43.040Z,1020.8
2019-06-26T08:09:55.243Z,1020.8
2019-06-26T08:11:07.447Z,1020.9
2019-06-26T08:12:19.640Z,1020.8
2019-06-26T08:13:31.084Z,1020.8
2019-06-26T08:14:44.046Z,1020.8
2019-06-26T08:16:00.298Z,1020.9
2019-06-26T08:17:08.444Z,1020.9
2019-06-26T08:18:20.650Z,1021
2019-06-26T08:19:32.086Z,1020.9
2019-06-26T08:20:45.056Z,1021
2019-06-26T08:21:57.252Z,1021
2019-06-26T08:23:09.454Z,1021
2019-06-26T08:24:21.653Z,1020.9
2019-06-26T08:25:33.085Z,1020.9
2019-06-26T08:26:46.055Z,1021
2019-06-26T08:27:58.250Z,1021
2019-06-26T08:29:10.454Z,1021.1
2019-06-26T08:30:22.066Z,1021.1
2019-06-26T08:31:34.864Z,1021.1
2019-06-26T08:32:47.061Z,1021.1
2019-06-26T08:33:59.266Z,1021.1
2019-06-26T08:35:11.466Z,1021.1
2019-06-26T08:36:23.669Z,1021.1
2019-06-26T08:37:35.867Z,1021.2
2019-06-26T08:38:48.006Z,1021.2
2019-06-26T08:40:00.267Z,1021.2
2019-06-26T08:41:12.468Z,1021.2
2019-06-26T08:42:24.674Z,1021.2
2019-06-26T08:43:36.896Z,1021.2
2019-06-26T08:44:49.007Z,1021.2
2019-06-26T08:46:01.274Z,1021.2
2019-06-26T08:47:13.472Z,1021.2
2019-06-26T08:48:25.676Z,1021.3
2019-06-26T08:49:37.878Z,1021.3
2019-06-26T08:50:50.074Z,1021.3
2019-06-26T08:52:02.288Z,1021.3
2019-06-26T08:53:14.487Z,1021.3
2019-06-26T08:54:26.688Z,1021.3
2019-06-26T08:55:38.890Z,1021.3
2019-06-26T08:56:51.082Z,1021.3
2019-06-26T08:58:03.286Z,1021.4
2019-06-26T08:59:15.487Z,1021.3
2019-06-26T09:00:27.068Z,1021.4
2019-06-26T09:01:39.885Z,1021.4
2019-06-26T09:02:52.009Z,1021.4
2019-06-26T09:04:04.295Z,1021.5
2019-06-26T09:05:16.495Z,1021.5
2019-06-26T09:06:28.069Z,1021.5
2019-06-26T09:07:40.898Z,1021.5
2019-06-26T09:08:53.098Z,1021.5
2019-06-26T09:10:05.295Z,1021.6
2019-06-26T09:11:17.497Z,1021.6
2019-06-26T09:12:29.069Z,1021.7
2019-06-26T09:13:41.905Z,1021.8
2019-06-26T09:14:54.108Z,1021.7
2019-06-26T09:16:06.303Z,1021.7
2019-06-26T09:17:18.511Z,1021.7
2019-06-26T09:18:30.918Z,1021.8
2019-06-26T09:19:42.903Z,1021.8
2019-06-26T09:20:55.109Z,1021.8
2019-06-26T09:22:07.312Z,1021.8
2019-06-26T09:23:19.518Z,1021.7
2019-06-26T09:24:31.720Z,1021.8
2019-06-26T09:25:43.916Z,1021.8
2019-06-26T09:26:56.011Z,1021.8
2019-06-26T09:28:08.323Z,1021.8
2019-06-26T09:29:20.051Z,1021.8
2019-06-26T09:30:32.721Z,1021.8
2019-06-26T09:31:44.919Z,1021.8
2019-06-26T09:32:57.011Z,1021.8
2019-06-26T09:34:09.330Z,1021.8
2019-06-26T09:35:21.527Z,1021.8
2019-06-26T09:37:45.930Z,1021.8
2019-06-26T09:38:58.127Z,1021.8
2019-06-26T09:40:10.354Z,1021.8
2019-06-26T09:41:22.533Z,1021.8
2019-06-26T09:42:34.072Z,1021.7
2019-06-26T09:43:46.932Z,1021.8
2019-06-26T09:44:59.141Z,1021.8
2019-06-26T09:46:11.488Z,1021.8
2019-06-26T09:47:23.539Z,1021.8
2019-06-26T09:48:35.738Z,1021.8
2019-06-26T09:49:47.094Z,1021.8
2019-06-26T09:51:00.142Z,1021.9
2019-06-26T09:52:12.342Z,1022
2019-06-26T09:53:24.005Z,1021.9
2019-06-26T09:54:36.747Z,1021.9
2019-06-26T09:55:48.960Z,1022
2019-06-26T09:57:01.155Z,1022
2019-06-26T09:58:13.355Z,1022
2019-06-26T09:59:25.554Z,1022.1
2019-06-26T10:00:37.753Z,1022.1
2019-06-26T10:01:49.950Z,1022.2
2019-06-26T10:03:02.155Z,1022.2
2019-06-26T10:04:14.353Z,1022.2
2019-06-26T10:05:26.562Z,1022.2
2019-06-26T10:06:38.765Z,1022.2
2019-06-26T10:07:50.959Z,1022.2
2019-06-26T10:09:03.165Z,1022.2
2019-06-26T10:10:15.365Z,1022.2
2019-06-26T10:11:27.055Z,1022.2
2019-06-26T10:12:39.776Z,1022.2
2019-06-26T10:13:51.965Z,1022.2
2019-06-26T10:15:04.001Z,1022.2
2019-06-26T10:16:16.373Z,1022.2
2019-06-26T10:17:28.573Z,1022.2
2019-06-26T10:18:40.775Z,1022.2
2019-06-26T10:19:52.973Z,1022.2
2019-06-26T10:21:05.172Z,1022.2
2019-06-26T10:22:17.381Z,1022.2
2019-06-26T10:23:29.581Z,1022.2
2019-06-26T10:24:41.078Z,1022.2
2019-06-26T10:25:53.098Z,1022.2
2019-06-26T10:27:06.185Z,1022.3
2019-06-26T10:28:18.386Z,1022.3
2019-06-26T10:29:30.587Z,1022.4
2019-06-26T10:30:42.785Z,1022.4
2019-06-26T10:31:54.986Z,1022.4
2019-06-26T10:33:07.193Z,1022.3
2019-06-26T10:34:19.394Z,1022.3
2019-06-26T10:35:31.596Z,1022.4
2019-06-26T10:36:44.047Z,1022.3
2019-06-26T10:37:55.997Z,1022.4
2019-06-26T10:39:08.329Z,1022.4
2019-06-26T10:40:20.396Z,1022.4
2019-06-26T10:41:32.600Z,1022.4
2019-06-26T10:42:44.806Z,1022.4
2019-06-26T10:43:57.009Z,1022.5
2019-06-26T10:45:09.204Z,1022.4
2019-06-26T10:46:21.040Z,1022.4
2019-06-26T10:47:33.607Z,1022.4
2019-06-26T10:48:45.806Z,1022.5
2019-06-26T10:49:58.006Z,1022.5
2019-06-26T10:51:10.211Z,1022.5
2019-06-26T10:52:22.418Z,1022.5
2019-06-26T10:53:34.061Z,1022.5
2019-06-26T10:55:59.020Z,1022.5
2019-06-26T10:57:11.238Z,1022.5
2019-06-26T10:58:23.418Z,1022.6
2019-06-26T10:59:35.619Z,1022.6
2019-06-26T11:00:47.819Z,1022.5
2019-06-26T11:02:00.028Z,1022.6
2019-06-26T11:03:12.228Z,1022.6
2019-06-26T11:04:24.426Z,1022.6
2019-06-26T11:05:36.626Z,1022.6
2019-06-26T11:06:48.829Z,1022.6
2019-06-26T11:08:01.030Z,1022.7
2019-06-26T11:09:13.226Z,1022.6
2019-06-26T11:10:25.430Z,1022.6
2019-06-26T11:11:37.638Z,1022.7
2019-06-26T11:12:49.845Z,1022.6
2019-06-26T11:14:02.040Z,1022.6
2019-06-26T11:15:14.242Z,1022.6
2019-06-26T11:16:26.445Z,1022.5
2019-06-26T11:17:38.671Z,1022.5
2019-06-26T11:18:50.840Z,1022.6
2019-06-26T11:20:03.048Z,1022.6
2019-06-26T11:21:15.249Z,1022.6
2019-06-26T11:22:27.448Z,1022.5
2019-06-26T11:23:39.651Z,1022.5
2019-06-26T11:24:51.852Z,1022.7
2019-06-26T11:26:04.053Z,1022.5
2019-06-26T11:27:16.249Z,1022.6
2019-06-26T11:28:28.046Z,1022.7
2019-06-26T11:29:40.664Z,1022.6
2019-06-26T11:30:52.860Z,1022.7
2019-06-26T11:32:05.062Z,1022.7
2019-06-26T11:33:17.260Z,1022.8
2019-06-26T11:34:29.463Z,1022.7
2019-06-26T11:35:41.066Z,1022.6
2019-06-26T11:36:53.862Z,1022.7
2019-06-26T11:38:06.069Z,1022.7
2019-06-26T11:39:18.274Z,1022.7
2019-06-26T11:40:30.471Z,1022.7
2019-06-26T11:41:42.671Z,1022.7
2019-06-26T11:42:54.872Z,1022.7
2019-06-26T11:44:07.068Z,1022.7
2019-06-26T11:45:19.272Z,1022.8
2019-06-26T11:46:31.532Z,1022.8
2019-06-26T11:47:43.073Z,1022.7
2019-06-26T11:48:55.883Z,1022.7
2019-06-26T11:50:08.084Z,1022.8
2019-06-26T11:51:20.284Z,1022.9
2019-06-26T11:52:32.484Z,1022.9
2019-06-26T11:53:44.681Z,1022.9
2019-06-26T11:54:56.892Z,1022.9
2019-06-26T11:56:09.096Z,1022.9
2019-06-26T11:57:21.028Z,1022.8
2019-06-26T11:58:33.491Z,1022.8
2019-06-26T12:00:57.893Z,1022.9
2019-06-26T12:02:10.097Z,1022.9
2019-06-26T12:03:22.029Z,1022.9
2019-06-26T12:04:34.504Z,1022.9
2019-06-26T12:05:46.704Z,1022.9
2019-06-26T12:06:58.899Z,1023
2019-06-26T12:08:11.103Z,1023
2019-06-26T12:09:23.303Z,1023.1
2019-06-26T12:10:35.504Z,1023
2019-06-26T12:11:47.070Z,1023
2019-06-26T12:12:59.897Z,1023.1
2019-06-26T12:14:12.113Z,1023.1
2019-06-26T12:15:24.031Z,1023
2019-06-26T12:16:36.520Z,1023.1
2019-06-26T12:17:48.714Z,1023.1
2019-06-26T12:19:00.915Z,1023.2
2019-06-26T12:20:13.115Z,1023.1
2019-06-26T12:21:25.031Z,1023.1
2019-06-26T12:22:37.517Z,1023.1
2019-06-26T12:23:49.741Z,1023.1
2019-06-26T12:25:01.926Z,1023.2
2019-06-26T12:26:14.123Z,1023
2019-06-26T12:27:26.327Z,1023.1
2019-06-26T12:28:38.052Z,1023.2
2019-06-26T12:29:50.724Z,1023.1
2019-06-26T12:31:02.092Z,1023.1
2019-06-26T12:32:15.123Z,1023.2
2019-06-26T12:33:27.337Z,1023.2
2019-06-26T12:34:39.053Z,1023.1
2019-06-26T12:35:51.743Z,1023.2
2019-06-26T12:37:03.936Z,1023.3
2019-06-26T12:38:16.135Z,1023.2
2019-06-26T12:39:28.337Z,1023.3
2019-06-26T12:40:40.538Z,1023.3
2019-06-26T12:41:52.743Z,1023.3
2019-06-26T12:43:04.009Z,1023.3
2019-06-26T12:44:17.147Z,1023.2
2019-06-26T12:45:29.350Z,1023.3
2019-06-26T12:46:41.547Z,1023.2
2019-06-26T12:47:53.746Z,1023.3
2019-06-26T12:49:05.945Z,1023.4
2019-06-26T12:50:18.148Z,1023.3
2019-06-26T12:51:30.347Z,1023.3
2019-06-26T12:52:42.561Z,1023.4
2019-06-26T12:53:54.760Z,1023.4
2019-06-26T12:55:06.095Z,1023.4
2019-06-26T12:56:19.158Z,1023.4
2019-06-26T12:57:31.358Z,1023.4
2019-06-26T12:58:43.559Z,1023.4
2019-06-26T12:59:55.758Z,1023.4
2019-06-26T13:01:07.964Z,1023.4
2019-06-26T13:02:20.172Z,1023.4
2019-06-26T13:03:32.371Z,1023.4
2019-06-26T13:04:44.572Z,1023.4
2019-06-26T13:05:56.770Z,1023.4
2019-06-26T13:07:08.972Z,1023.3
2019-06-26T13:08:21.017Z,1023.3
2019-06-26T13:09:33.372Z,1023.4
2019-06-26T13:10:45.569Z,1023.4
2019-06-26T13:11:57.773Z,1023.4
2019-06-26T13:13:09.098Z,1023.4
2019-06-26T13:14:22.186Z,1023.4
2019-06-26T13:15:34.386Z,1023.5
2019-06-26T13:16:46.580Z,1023.4
2019-06-26T13:17:58.778Z,1023.5
2019-06-26T13:19:10.983Z,1023.6
2019-06-26T13:20:23.182Z,1023.6
2019-06-26T13:21:35.390Z,1023.6
2019-06-26T13:22:47.592Z,1023.6
2019-06-26T13:23:59.793Z,1023.7
2019-06-26T13:25:11.992Z,1023.6
2019-06-26T13:26:24.192Z,1023.7
2019-06-26T13:27:36.389Z,1023.7
2019-06-26T13:28:48.594Z,1023.8
2019-06-26T13:30:00.796Z,1023.8
2019-06-26T13:31:12.994Z,1023.7
2019-06-26T13:32:25.204Z,1023.7
2019-06-26T13:33:37.403Z,1023.8
2019-06-26T13:34:49.612Z,1023.7
2019-06-26T13:36:01.803Z,1023.8
2019-06-26T13:37:13.994Z,1023.8
2019-06-26T13:38:26.194Z,1023.8
2019-06-26T13:39:38.392Z,1023.9
2019-06-26T13:40:50.593Z,1023.8
2019-06-26T13:42:02.797Z,1023.9
2019-06-26T13:43:14.991Z,1023.7
2019-06-26T13:44:27.194Z,1023.9
2019-06-26T13:45:39.396Z,1023.7
2019-06-26T13:46:51.592Z,1023.7
2019-06-26T13:48:03.793Z,1023.8
2019-06-26T13:49:15.989Z,1023.8
2019-06-26T13:50:28.187Z,1023.9
2019-06-26T13:51:40.383Z,1023.7
2019-06-26T13:52:52.583Z,1023.8
2019-06-26T13:54:04.788Z,1023.8
2019-06-26T13:55:16.985Z,1023.8
2019-06-26T13:56:29.610Z,1023.9
2019-06-26T13:57:41.388Z,1023.8
2019-06-26T13:58:53.588Z,1023.8
2019-06-26T14:00:05.786Z,1023.8
2019-06-26T14:01:17.098Z,1023.9
2019-06-26T14:02:30.175Z,1024
2019-06-26T14:03:42.379Z,1024
2019-06-26T14:04:54.578Z,1024.1
2019-06-26T14:06:06.777Z,1024.1
2019-06-26T14:07:18.990Z,1024
2019-06-26T14:08:31.177Z,1024.1
2019-06-26T14:09:43.377Z,1024.1
2019-06-26T14:10:55.579Z,1024.2
2019-06-26T14:12:07.788Z,1024.1
2019-06-26T14:13:19.967Z,1024.1
2019-06-26T14:14:32.167Z,1024.2
2019-06-26T14:15:44.368Z,1024.1
2019-06-26T14:16:56.574Z,1024
2019-06-26T14:18:08.772Z,1024.1
2019-06-26T14:19:20.096Z,1024.1
2019-06-26T14:20:33.169Z,1024.2
2019-06-26T14:21:45.372Z,1024.2
2019-06-26T14:22:57.573Z,1024.2
2019-06-26T14:24:09.771Z,1024.1
2019-06-26T14:25:21.967Z,1024.2
2019-06-26T14:26:34.169Z,1024
2019-06-26T14:27:46.361Z,1024
2019-06-26T14:28:58.565Z,1024.2
2019-06-26T14:30:10.764Z,1024.2
2019-06-26T14:31:22.962Z,1024.2
2019-06-26T14:32:35.162Z,1024.2
2019-06-26T14:33:47.357Z,1024.1
2019-06-26T14:34:59.565Z,1024
2019-06-26T14:36:11.760Z,1024
2019-06-26T14:37:23.964Z,1024.1
2019-06-26T14:38:36.163Z,1024
2019-06-26T14:39:48.363Z,1024.1
2019-06-26T14:41:00.565Z,1024
2019-06-26T14:42:12.753Z,1024.3
2019-06-26T14:43:24.960Z,1024.2
2019-06-26T14:44:37.181Z,1024.2
2019-06-26T14:45:49.359Z,1024
2019-06-26T14:47:01.555Z,1024.2
2019-06-26T14:48:13.753Z,1024.1
2019-06-26T14:49:25.955Z,1024.3
2019-06-26T14:50:38.155Z,1024
2019-06-26T14:51:50.354Z,1024.3
2019-06-26T14:53:02.560Z,1024.4
2019-06-26T14:54:15.122Z,1024.5
2019-06-26T14:55:26.095Z,1024.5
2019-06-26T14:56:39.150Z,1024.5
2019-06-26T14:57:51.437Z,1024.5
2019-06-26T14:59:03.553Z,1024.4
2019-06-26T15:00:15.749Z,1024.4
2019-06-26T15:01:27.951Z,1024.4
2019-06-26T15:02:40.001Z,1024.5
2019-06-26T15:05:04.548Z,1024.3
2019-06-26T15:06:16.074Z,1024.5
2019-06-26T15:07:28.936Z,1024.5
2019-06-26T15:08:41.138Z,1024.4
2019-06-26T15:09:53.354Z,1024.4
2019-06-26T15:11:05.537Z,1024.5
2019-06-26T15:12:17.747Z,1024.5